Martin Posadillo — EBQJ — position and weather

sailwx.info

Track history (hours):
 
Tides and Currents Weather Stations Pressure Air Temp Water Temp Dewpoint Dewpoint Depression Visibility Wind Speed Wind Dir Waves Ship Positions

Martin Posadillo

Last reported at 2018-Jun-14 08:57 UTC. Time now 2018-Aug-14 13:44 UTC.
Position N 35°60' W 005°13'.
Warning: this ship's position is months out of date.

Length 75 m.

MMSI: 224066000.

Date/timePositionNaut miles runAvg speedWind from/ knotsBaromVisibWave heightAir tempDewpointWater temp
2018-Jun-14 08:57N 35°60' W 005°13'512.4
2018-Jun-14 08:30N 35°59' W 005°20'612.9
2018-Jun-14 08:00N 35°58' W 005°27'  
2018-Jun-11 02:53N 28°39' W 015°35'3 8.7
2018-Jun-11 02:30N 28°37' W 015°37'4 8.4
2018-Jun-11 02:00N 28°34' W 015°41'4 8.2
2018-Jun-11 01:30N 28°31' W 015°44'4 8.4
2018-Jun-11 01:00N 28°28' W 015°48'4 8.4
2018-Jun-11 00:30N 28°25' W 015°51'4 8.2
2018-Jun-11 00:00N 28°23' W 015°55'4 8.2
2018-Jun-10 23:30N 28°21' W 015°59'4 8.3
2018-Jun-10 22:59N 28°21' W 016°04'24 2.4
2018-Jun-10 12:47N 28°16' W 015°37'3 9.4
2018-Jun-10 12:30N 28°15' W 015°34'5 9.2
2018-Jun-10 12:00N 28°14' W 015°29'5 9.4
2018-Jun-10 11:30N 28°13' W 015°24'4 7.5
2018-Jun-10 11:00N 28°09' W 015°23'2 4.3
2018-Jun-10 10:30N 28°08' W 015°25'0 0.7
2018-Jun-10 09:58N 28°08' W 015°25'0 0.0
2018-Jun-10 09:30N 28°08' W 015°25'0 0.0
2018-Jun-10 09:00N 28°08' W 015°25'0 0.0
2018-Jun-10 08:30N 28°08' W 015°25'0 0.0
2018-Jun-10 07:59N 28°08' W 015°25'0 0.0
2018-Jun-10 07:30N 28°08' W 015°25'1 2.5
2018-Jun-10 07:00N 28°07' W 015°24'3 6.4
2018-Jun-10 06:30N 28°07' W 015°21'1 2.3
2018-Jun-10 06:00N 28°07' W 015°22'3 5.9
2018-Jun-10 05:30N 28°07' W 015°19'3 6.0
2018-Jun-10 05:00N 28°07' W 015°15'11 7.1
2018-Jun-10 03:29N 28°09' W 015°03'4 8.0
2018-Jun-10 03:00N 28°08' W 014°59'24 7.7
2018-Jun-09 23:54N 28°00' W 014°33'13 8.1
2018-Jun-09 22:21N 28°01' W 014°19'3 9.3
2018-Jun-09 21:59N 28°02' W 014°15'6 9.3
2018-Jun-09 21:23N 28°04' W 014°10'4 9.1
2018-Jun-09 20:57N 28°06' W 014°06'4 8.8
2018-Jun-09 20:27N 28°08' W 014°01'13 9.0
2018-Jun-09 19:02N 28°17' W 013°51'1 9.8
2018-Jun-09 18:54N 28°18' W 013°51'8 9.9
2018-Jun-09 18:07N 28°26' W 013°49'21 0.5
2018-Jun-08 02:42N 28°08' W 014°01'2 8.6
2018-Jun-08 02:29N 28°08' W 014°03'20 8.1
2018-Jun-08 00:03N 28°01' W 014°24'0 6.9
2018-Jun-07 23:59N 28°00' W 014°24'47 8.7
2018-Jun-07 18:33N 28°07' W 015°17'0 9.5
2018-Jun-07 18:31N 28°07' W 015°18'5 9.1
2018-Jun-07 18:00N 28°07' W 015°23'3 5.4
2018-Jun-07 17:30N 28°08' W 015°26'0 0.0
2018-Jun-07 16:58N 28°08' W 015°26'0 0.0
2018-Jun-07 16:19N 28°08' W 015°26'0 0.0
2018-Jun-07 15:49N 28°08' W 015°26'0 0.0
2018-Jun-07 15:19N 28°08' W 015°26'0 0.0
2018-Jun-07 14:52N 28°08' W 015°26'0 0.0
2018-Jun-07 14:22N 28°08' W 015°26'0 0.0
2018-Jun-07 13:52N 28°08' W 015°26'0 0.0
2018-Jun-07 13:23N 28°08' W 015°26'0 0.0
2018-Jun-07 12:53N 28°08' W 015°26'0 0.0
2018-Jun-07 12:23N 28°08' W 015°26'0 0.0
2018-Jun-07 11:53N 28°08' W 015°26'0 0.1
2018-Jun-07 11:19N 28°08' W 015°26'0 0.1
2018-Jun-07 10:53N 28°08' W 015°26'0 0.0
2018-Jun-07 10:23N 28°08' W 015°26'0 0.0
2018-Jun-07 09:53N 28°08' W 015°26'0 0.0
2018-Jun-07 09:26N 28°08' W 015°26'0 0.0
2018-Jun-07 08:56N 28°08' W 015°26'0 0.0
2018-Jun-07 08:26N 28°08' W 015°26'0 0.0
2018-Jun-07 07:56N 28°08' W 015°26'0 0.0
2018-Jun-07 07:26N 28°08' W 015°26'0 0.0
2018-Jun-07 06:56N 28°08' W 015°26'0 0.0
2018-Jun-07 06:29N 28°08' W 015°26'0 0.0
2018-Jun-07 05:59N 28°08' W 015°26'0 0.0
2018-Jun-07 05:29N 28°08' W 015°26'0 0.0
2018-Jun-07 04:59N 28°08' W 015°26'0 0.0
2018-Jun-07 04:29N 28°08' W 015°26'0 0.0
2018-Jun-07 03:59N 28°08' W 015°26'0 0.0
2018-Jun-07 03:29N 28°08' W 015°26'0 0.0
2018-Jun-07 02:59N 28°08' W 015°26'0 0.0
2018-Jun-07 02:29N 28°08' W 015°26'0 0.0
2018-Jun-07 01:59N 28°08' W 015°26'0 0.0
2018-Jun-07 01:29N 28°08' W 015°26'0 0.0
2018-Jun-07 00:59N 28°08' W 015°26'0 0.0
2018-Jun-07 00:29N 28°08' W 015°26'0 0.0
2018-Jun-06 23:59N 28°08' W 015°26'0 0.0
2018-Jun-06 23:20N 28°08' W 015°26'0 0.0
2018-Jun-06 22:50N 28°08' W 015°26'0 0.0
2018-Jun-06 22:23N 28°08' W 015°26'0 0.0
2018-Jun-06 21:53N 28°08' W 015°26'0 0.0
2018-Jun-06 21:23N 28°08' W 015°26'0 0.0
2018-Jun-06 20:53N 28°08' W 015°26'0 0.0
2018-Jun-06 20:23N 28°08' W 015°26'0 0.0
2018-Jun-06 19:53N 28°08' W 015°26'0 0.0
2018-Jun-06 19:26N 28°08' W 015°26'0 0.0
2018-Jun-06 18:56N 28°08' W 015°26'0 0.0
2018-Jun-06 18:26N 28°08' W 015°26'0 0.0
2018-Jun-06 17:57N 28°08' W 015°26'0 0.0
2018-Jun-06 17:29N 28°08' W 015°26'0 0.0
2018-Jun-06 16:59N 28°08' W 015°26'0 0.0
2018-Jun-06 16:29N 28°08' W 015°26'0 0.0
2018-Jun-06 15:59N 28°08' W 015°26'0 0.0
2018-Jun-06 15:29N 28°08' W 015°26'0 0.0
2018-Jun-06 14:50N 28°08' W 015°26'0 0.0
2018-Jun-06 14:20N 28°08' W 015°26'0 0.0
2018-Jun-06 13:54N 28°08' W 015°26'0 0.0
2018-Jun-06 13:05N 28°08' W 015°26'0 0.0
2018-Jun-06 12:50N 28°08' W 015°26'0 0.0
2018-Jun-06 12:23N 28°08' W 015°26'0 0.0
2018-Jun-06 11:53N 28°08' W 015°26'0 0.0
2018-Jun-06 11:23N 28°08' W 015°26'0 0.0
2018-Jun-06 10:53N 28°08' W 015°26'0 0.0
2018-Jun-06 10:16N 28°08' W 015°26'0 0.0
2018-Jun-06 09:58N 28°08' W 015°26'0 0.0
2018-Jun-06 09:28N 28°08' W 015°26'  
Track history (hours):
 
Tides and Currents Weather Stations Pressure Air Temp Water Temp Dewpoint Dewpoint Depression Visibility Wind Speed Wind Dir Waves Ship Positions

Martin Posadillo

Last reported at 2018-Jun-14 08:57 UTC. Time now 2018-Aug-14 13:44 UTC.
Position N 35°60' W 005°13'.
Warning: this ship's position is months out of date.

Length 75 m.

MMSI: 224066000.

Date/timePositionNaut miles runAvg speedWind from/ knotsBaromVisibWave heightAir tempDewpointWater temp
2018-Jun-14 08:57N 35°60' W 005°13'512.4
2018-Jun-14 08:30N 35°59' W 005°20'612.9
2018-Jun-14 08:00N 35°58' W 005°27'  
2018-Jun-11 02:53N 28°39' W 015°35'3 8.7
2018-Jun-11 02:30N 28°37' W 015°37'4 8.4
2018-Jun-11 02:00N 28°34' W 015°41'4 8.2
2018-Jun-11 01:30N 28°31' W 015°44'4 8.4
2018-Jun-11 01:00N 28°28' W 015°48'4 8.4
2018-Jun-11 00:30N 28°25' W 015°51'4 8.2
2018-Jun-11 00:00N 28°23' W 015°55'4 8.2
2018-Jun-10 23:30N 28°21' W 015°59'4 8.3
2018-Jun-10 22:59N 28°21' W 016°04'24 2.4
2018-Jun-10 12:47N 28°16' W 015°37'3 9.4
2018-Jun-10 12:30N 28°15' W 015°34'5 9.2
2018-Jun-10 12:00N 28°14' W 015°29'5 9.4
2018-Jun-10 11:30N 28°13' W 015°24'4 7.5
2018-Jun-10 11:00N 28°09' W 015°23'2 4.3
2018-Jun-10 10:30N 28°08' W 015°25'0 0.7
2018-Jun-10 09:58N 28°08' W 015°25'0 0.0
2018-Jun-10 09:30N 28°08' W 015°25'0 0.0
2018-Jun-10 09:00N 28°08' W 015°25'0 0.0
2018-Jun-10 08:30N 28°08' W 015°25'0 0.0
2018-Jun-10 07:59N 28°08' W 015°25'0 0.0
2018-Jun-10 07:30N 28°08' W 015°25'1 2.5
2018-Jun-10 07:00N 28°07' W 015°24'3 6.4
2018-Jun-10 06:30N 28°07' W 015°21'1 2.3
2018-Jun-10 06:00N 28°07' W 015°22'3 5.9
2018-Jun-10 05:30N 28°07' W 015°19'3 6.0
2018-Jun-10 05:00N 28°07' W 015°15'11 7.1
2018-Jun-10 03:29N 28°09' W 015°03'4 8.0
2018-Jun-10 03:00N 28°08' W 014°59'24 7.7
2018-Jun-09 23:54N 28°00' W 014°33'13 8.1
2018-Jun-09 22:21N 28°01' W 014°19'3 9.3
2018-Jun-09 21:59N 28°02' W 014°15'6 9.3
2018-Jun-09 21:23N 28°04' W 014°10'4 9.1
2018-Jun-09 20:57N 28°06' W 014°06'4 8.8
2018-Jun-09 20:27N 28°08' W 014°01'13 9.0
2018-Jun-09 19:02N 28°17' W 013°51'1 9.8
2018-Jun-09 18:54N 28°18' W 013°51'8 9.9
2018-Jun-09 18:07N 28°26' W 013°49'21 0.5
2018-Jun-08 02:42N 28°08' W 014°01'2 8.6
2018-Jun-08 02:29N 28°08' W 014°03'20 8.1
2018-Jun-08 00:03N 28°01' W 014°24'0 6.9
2018-Jun-07 23:59N 28°00' W 014°24'47 8.7
2018-Jun-07 18:33N 28°07' W 015°17'0 9.5
2018-Jun-07 18:31N 28°07' W 015°18'5 9.1
2018-Jun-07 18:00N 28°07' W 015°23'3 5.4
2018-Jun-07 17:30N 28°08' W 015°26'0 0.0
2018-Jun-07 16:58N 28°08' W 015°26'0 0.0
2018-Jun-07 16:19N 28°08' W 015°26'0 0.0
2018-Jun-07 15:49N 28°08' W 015°26'0 0.0
2018-Jun-07 15:19N 28°08' W 015°26'0 0.0
2018-Jun-07 14:52N 28°08' W 015°26'0 0.0
2018-Jun-07 14:22N 28°08' W 015°26'0 0.0
2018-Jun-07 13:52N 28°08' W 015°26'0 0.0
2018-Jun-07 13:23N 28°08' W 015°26'0 0.0
2018-Jun-07 12:53N 28°08' W 015°26'0 0.0
2018-Jun-07 12:23N 28°08' W 015°26'0 0.0
2018-Jun-07 11:53N 28°08' W 015°26'0 0.1
2018-Jun-07 11:19N 28°08' W 015°26'0 0.1
2018-Jun-07 10:53N 28°08' W 015°26'0 0.0
2018-Jun-07 10:23N 28°08' W 015°26'0 0.0
2018-Jun-07 09:53N 28°08' W 015°26'0 0.0
2018-Jun-07 09:26N 28°08' W 015°26'0 0.0
2018-Jun-07 08:56N 28°08' W 015°26'0 0.0
2018-Jun-07 08:26N 28°08' W 015°26'0 0.0
2018-Jun-07 07:56N 28°08' W 015°26'0 0.0
2018-Jun-07 07:26N 28°08' W 015°26'0 0.0
2018-Jun-07 06:56N 28°08' W 015°26'0 0.0
2018-Jun-07 06:29N 28°08' W 015°26'0 0.0
2018-Jun-07 05:59N 28°08' W 015°26'0 0.0
2018-Jun-07 05:29N 28°08' W 015°26'0 0.0
2018-Jun-07 04:59N 28°08' W 015°26'0 0.0
2018-Jun-07 04:29N 28°08' W 015°26'0 0.0
2018-Jun-07 03:59N 28°08' W 015°26'0 0.0
2018-Jun-07 03:29N 28°08' W 015°26'0 0.0
2018-Jun-07 02:59N 28°08' W 015°26'0 0.0
2018-Jun-07 02:29N 28°08' W 015°26'0 0.0
2018-Jun-07 01:59N 28°08' W 015°26'0 0.0
2018-Jun-07 01:29N 28°08' W 015°26'0 0.0
2018-Jun-07 00:59N 28°08' W 015°26'0 0.0
2018-Jun-07 00:29N 28°08' W 015°26'0 0.0
2018-Jun-06 23:59N 28°08' W 015°26'0 0.0
2018-Jun-06 23:20N 28°08' W 015°26'0 0.0
2018-Jun-06 22:50N 28°08' W 015°26'0 0.0
2018-Jun-06 22:23N 28°08' W 015°26'0 0.0
2018-Jun-06 21:53N 28°08' W 015°26'0 0.0
2018-Jun-06 21:23N 28°08' W 015°26'0 0.0
2018-Jun-06 20:53N 28°08' W 015°26'0 0.0
2018-Jun-06 20:23N 28°08' W 015°26'0 0.0
2018-Jun-06 19:53N 28°08' W 015°26'0 0.0
2018-Jun-06 19:26N 28°08' W 015°26'0 0.0
2018-Jun-06 18:56N 28°08' W 015°26'0 0.0
2018-Jun-06 18:26N 28°08' W 015°26'0 0.0
2018-Jun-06 17:57N 28°08' W 015°26'0 0.0
2018-Jun-06 17:29N 28°08' W 015°26'0 0.0
2018-Jun-06 16:59N 28°08' W 015°26'0 0.0
2018-Jun-06 16:29N 28°08' W 015°26'0 0.0
2018-Jun-06 15:59N 28°08' W 015°26'0 0.0
2018-Jun-06 15:29N 28°08' W 015°26'0 0.0
2018-Jun-06 14:50N 28°08' W 015°26'0 0.0
2018-Jun-06 14:20N 28°08' W 015°26'0 0.0
2018-Jun-06 13:54N 28°08' W 015°26'0 0.0
2018-Jun-06 13:05N 28°08' W 015°26'0 0.0
2018-Jun-06 12:50N 28°08' W 015°26'0 0.0
2018-Jun-06 12:23N 28°08' W 015°26'0 0.0
2018-Jun-06 11:53N 28°08' W 015°26'0 0.0
2018-Jun-06 11:23N 28°08' W 015°26'0 0.0
2018-Jun-06 10:53N 28°08' W 015°26'0 0.0
2018-Jun-06 10:16N 28°08' W 015°26'0 0.0
2018-Jun-06 09:58N 28°08' W 015°26'0 0.0
2018-Jun-06 09:28N 28°08' W 015°26'  

Dump ship's entire track history